Time;durP1;ratioP1;P1;durP2;ratioP2;P2;SDS_P1;SDS_P2;PMS_P1;PMS_P2;Temp;Humidity;BMP_temperature;BMP_pressure;BME280_temperature;BME280_humidity;BME280_pressure;Samples;Min_cycle;Max_cycle;Signal;HPM_P1;HPM_P2
2023/10/08 00:00:46;;;;;;;8.10;3.95;;;19.00;99.90;;;;;;4094228;28;20102;-67
2023/10/08 00:02:47;;;;;;;9.65;3.90;;;19.00;99.90;;;;;;4094652;28;20039;-67
2023/10/08 00:04:50;;;;;;;9.48;4.05;;;19.00;99.90;;;;;;4090273;28;20398;-67
2023/10/08 00:06:52;;;;;;;7.70;3.85;;;19.00;99.90;;;;;;4105169;28;20085;-71
2023/10/08 00:08:59;;;;;;;8.63;4.57;;;19.00;99.90;;;;;;4109710;28;20500;-71
2023/10/08 00:11:06;;;;;;;7.85;4.05;;;19.00;99.90;;;;;;4127130;28;20349;-72
2023/10/08 00:13:09;;;;;;;6.88;3.67;;;19.00;99.90;;;;;;4112219;28;20492;-71
2023/10/08 00:15:10;;;;;;;9.75;4.35;;;19.00;99.90;;;;;;4107213;28;20042;-70
2023/10/08 00:17:12;;;;;;;13.05;4.38;;;18.90;99.90;;;;;;4112160;28;20047;-71
2023/10/08 00:19:15;;;;;;;11.45;4.45;;;18.90;99.90;;;;;;4105510;28;20043;-70
2023/10/08 00:21:16;;;;;;;9.98;4.40;;;18.90;99.90;;;;;;4107030;28;20134;-71
2023/10/08 00:23:17;;;;;;;13.25;4.45;;;18.80;99.90;;;;;;4112076;28;20122;-71
2023/10/08 00:25:18;;;;;;;10.35;4.25;;;18.90;99.90;;;;;;4112507;28;20341;-71
2023/10/08 00:27:20;;;;;;;10.45;3.70;;;18.80;99.90;;;;;;4112665;28;20026;-69
2023/10/08 00:29:21;;;;;;;9.80;4.50;;;18.80;99.90;;;;;;4111147;28;20598;-70
2023/10/08 00:31:26;;;;;;;15.13;4.80;;;18.80;99.90;;;;;;4109657;28;20067;-69
2023/10/08 00:33:26;;;;;;;7.90;3.80;;;18.80;99.90;;;;;;4113354;28;20027;-69
2023/10/08 00:35:27;;;;;;;10.00;4.35;;;18.80;99.90;;;;;;4097414;28;20589;-70
2023/10/08 00:37:29;;;;;;;9.88;4.43;;;18.80;99.90;;;;;;4108354;28;20047;-70
2023/10/08 00:39:34;;;;;;;11.30;4.63;;;18.80;99.90;;;;;;4111037;28;20045;-69
2023/10/08 00:41:35;;;;;;;7.32;4.00;;;18.70;99.90;;;;;;4111770;28;20278;-69
2023/10/08 00:43:36;;;;;;;6.93;3.63;;;18.80;99.90;;;;;;4106512;28;20039;-69
2023/10/08 00:45:42;;;;;;;8.15;3.88;;;18.80;99.90;;;;;;4094296;28;20050;-69
2023/10/08 00:47:43;;;;;;;7.05;3.58;;;18.80;99.90;;;;;;4112116;28;20031;-69
2023/10/08 00:51:59;;;;;;;8.50;3.75;;;18.80;99.90;;;;;;4111642;28;20038;-69
2023/10/08 00:54:08;;;;;;;6.88;3.78;;;18.80;99.90;;;;;;4106304;28;20046;-69
2023/10/08 00:56:18;;;;;;;8.02;4.00;;;18.80;99.90;;;;;;4109814;28;20097;-69
2023/10/08 00:58:27;;;;;;;11.10;4.50;;;18.80;99.90;;;;;;4111071;28;20413;-69
2023/10/08 01:00:37;;;;;;;8.50;3.95;;;18.70;99.90;;;;;;4109344;28;20504;-70
2023/10/08 01:02:49;;;;;;;8.52;4.20;;;18.80;99.90;;;;;;4112728;28;20110;-69
2023/10/08 01:04:50;;;;;;;7.80;4.00;;;18.70;99.90;;;;;;4096916;28;20028;-70
2023/10/08 01:06:59;;;;;;;8.57;3.95;;;18.70;99.90;;;;;;4103302;28;20070;-69
2023/10/08 01:09:09;;;;;;;8.20;4.07;;;18.70;99.90;;;;;;4099922;28;20050;-69
2023/10/08 01:11:26;;;;;;;8.98;4.05;;;18.70;99.90;;;;;;4100391;28;20042;-69
2023/10/08 01:13:35;;;;;;;10.93;4.35;;;18.70;99.90;;;;;;4115058;28;20055;-69
2023/10/08 01:15:37;;;;;;;8.55;4.07;;;18.60;99.90;;;;;;4096812;28;20039;-67
2023/10/08 01:17:46;;;;;;;9.20;4.20;;;18.60;99.90;;;;;;4114104;28;20047;-70
2023/10/08 01:19:54;;;;;;;10.48;3.90;;;18.60;99.90;;;;;;4108941;28;20031;-69
2023/10/08 01:21:58;;;;;;;7.55;3.70;;;18.60;99.90;;;;;;4080551;28;20042;-70
2023/10/08 01:24:02;;;;;;;9.52;3.83;;;18.60;99.90;;;;;;4037458;28;20042;-70
2023/10/08 01:26:12;;;;;;;8.52;3.83;;;18.50;99.90;;;;;;4105915;28;20105;-69
2023/10/08 01:28:31;;;;;;;9.27;3.95;;;18.50;99.90;;;;;;4107400;28;20042;-69
2023/10/08 01:30:36;;;;;;;8.50;3.80;;;18.50;99.90;;;;;;4121924;28;20043;-69
2023/10/08 01:32:36;;;;;;;10.15;4.70;;;18.50;99.90;;;;;;4092019;28;20148;-69
2023/10/08 01:34:39;;;;;;;8.05;3.70;;;18.50;99.90;;;;;;4112150;28;20038;-70
2023/10/08 01:36:39;;;;;;;11.98;4.43;;;18.50;99.90;;;;;;4110046;28;20082;-69
2023/10/08 01:38:41;;;;;;;7.50;3.67;;;18.40;99.90;;;;;;4109809;28;20448;-70
2023/10/08 01:40:42;;;;;;;11.23;4.40;;;18.50;99.90;;;;;;4124700;28;20058;-69
2023/10/08 01:42:43;;;;;;;8.00;3.45;;;18.50;99.90;;;;;;4094139;28;20477;-69
2023/10/08 01:44:48;;;;;;;8.80;4.05;;;18.40;99.90;;;;;;4125794;28;20031;-69
2023/10/08 01:46:49;;;;;;;7.13;3.60;;;18.40;99.90;;;;;;4115498;28;20114;-69
2023/10/08 01:49:00;;;;;;;7.57;3.55;;;18.40;99.90;;;;;;4110611;28;20186;-69
2023/10/08 01:51:08;;;;;;;8.85;3.83;;;18.40;99.90;;;;;;4086831;28;20115;-70
2023/10/08 01:53:10;;;;;;;9.25;3.90;;;18.30;99.90;;;;;;4105436;28;20035;-69
2023/10/08 01:55:17;;;;;;;9.55;3.65;;;18.40;99.90;;;;;;4109396;28;20035;-70
2023/10/08 01:57:17;;;;;;;8.85;4.13;;;18.30;99.90;;;;;;4110408;28;20059;-69
2023/10/08 01:59:18;;;;;;;10.25;4.25;;;18.30;99.90;;;;;;4107487;28;20579;-69
2023/10/08 02:01:22;;;;;;;9.82;3.85;;;18.30;99.90;;;;;;4107600;28;20047;-69
2023/10/08 02:03:22;;;;;;;8.00;4.18;;;18.30;99.90;;;;;;4108824;28;20413;-69
2023/10/08 02:05:23;;;;;;;12.23;4.32;;;18.30;99.90;;;;;;4101301;28;20031;-69
2023/10/08 02:07:24;;;;;;;8.02;3.72;;;18.20;99.90;;;;;;4104406;28;20061;-70
2023/10/08 02:09:26;;;;;;;7.57;3.90;;;18.20;99.90;;;;;;4108720;28;20030;-69
2023/10/08 02:11:27;;;;;;;8.07;4.13;;;18.20;99.90;;;;;;4106865;28;20039;-69
2023/10/08 02:13:28;;;;;;;12.13;4.35;;;18.20;99.90;;;;;;4107065;28;20563;-69
2023/10/08 02:15:29;;;;;;;11.32;4.25;;;18.20;99.90;;;;;;4103143;28;20070;-69
2023/10/08 02:17:30;;;;;;;8.75;3.67;;;18.20;99.90;;;;;;4110567;28;20054;-69
2023/10/08 02:19:30;;;;;;;6.55;3.22;;;18.20;99.90;;;;;;4114681;28;20547;-69
2023/10/08 02:21:31;;;;;;;13.20;4.30;;;18.10;99.90;;;;;;4108895;28;20444;-69
2023/10/08 02:23:31;;;;;;;9.70;4.10;;;18.10;99.90;;;;;;4109718;28;20073;-69
2023/10/08 02:25:34;;;;;;;10.32;4.43;;;18.10;99.90;;;;;;4092991;28;20031;-71
2023/10/08 02:27:37;;;;;;;8.07;3.75;;;18.00;99.90;;;;;;4102727;28;20039;-69
2023/10/08 02:29:38;;;;;;;10.05;3.95;;;18.00;99.90;;;;;;4092155;28;20522;-69
2023/10/08 02:31:39;;;;;;;8.95;4.07;;;18.00;99.90;;;;;;4112293;28;20042;-70
2023/10/08 02:33:40;;;;;;;6.88;3.50;;;17.90;99.90;;;;;;4100077;28;20045;-69
2023/10/08 02:35:46;;;;;;;8.25;3.50;;;18.00;99.90;;;;;;4105771;28;20118;-69
2023/10/08 02:37:47;;;;;;;10.77;4.57;;;18.00;99.90;;;;;;4100430;28;20037;-69
2023/10/08 02:39:48;;;;;;;11.15;4.50;;;18.00;99.90;;;;;;4099756;28;20042;-69
2023/10/08 02:41:49;;;;;;;8.80;4.07;;;17.90;99.90;;;;;;4106946;28;20046;-69
2023/10/08 02:43:50;;;;;;;9.38;4.03;;;17.90;99.90;;;;;;4109684;28;20058;-69
2023/10/08 02:45:52;;;;;;;8.23;4.13;;;17.90;99.90;;;;;;4105710;28;20038;-67
2023/10/08 02:47:54;;;;;;;10.03;4.37;;;17.90;99.90;;;;;;4108490;28;20041;-67
2023/10/08 02:49:55;;;;;;;5.70;3.15;;;17.80;99.90;;;;;;4110692;28;20349;-66
2023/10/08 02:51:57;;;;;;;6.72;3.55;;;17.80;99.90;;;;;;4109612;28;20035;-67
2023/10/08 02:53:58;;;;;;;7.75;4.00;;;17.80;99.90;;;;;;4110405;28;20061;-67
2023/10/08 02:55:59;;;;;;;8.48;3.70;;;17.80;99.90;;;;;;4109950;28;20461;-67
2023/10/08 02:58:02;;;;;;;7.68;3.78;;;17.80;99.90;;;;;;4108689;28;20045;-67
2023/10/08 03:00:04;;;;;;;6.63;3.70;;;17.80;99.90;;;;;;4110974;28;20035;-69
2023/10/08 03:02:13;;;;;;;7.45;3.47;;;17.80;99.90;;;;;;4108753;28;20062;-67
2023/10/08 03:04:19;;;;;;;8.52;3.75;;;17.70;99.90;;;;;;4107601;28;20041;-68
2023/10/08 03:06:20;;;;;;;5.70;3.35;;;17.70;99.90;;;;;;4104771;28;20035;-67
2023/10/08 03:08:21;;;;;;;9.80;4.07;;;17.70;99.90;;;;;;4105039;28;20042;-66
2023/10/08 03:10:22;;;;;;;8.77;4.25;;;17.70;99.90;;;;;;4108851;28;20030;-67
2023/10/08 03:12:25;;;;;;;8.60;3.42;;;17.60;99.90;;;;;;4106659;28;20114;-67
2023/10/08 03:14:26;;;;;;;;;;;17.60;99.90;;;;;;4091554;28;20106;-66
2023/10/08 03:16:34;;;;;;;6.75;3.40;;;17.70;99.90;;;;;;4107398;28;19917;-67
2023/10/08 03:18:42;;;;;;;6.85;3.60;;;17.60;99.90;;;;;;4106888;28;20043;-66
2023/10/08 03:20:45;;;;;;;8.25;4.20;;;17.60;99.90;;;;;;4104285;28;20067;-67
2023/10/08 03:22:45;;;;;;;6.22;3.53;;;17.60;99.90;;;;;;4106155;28;20504;-66
2023/10/08 03:24:48;;;;;;;6.20;3.75;;;17.50;99.90;;;;;;4109175;28;20035;-70
2023/10/08 03:26:55;;;;;;;;;;;17.50;99.90;;;;;;4092846;28;20027;-67
2023/10/08 03:28:58;;;;;;;5.75;3.42;;;17.60;99.90;;;;;;4098839;28;19911;-67
2023/10/08 03:31:05;;;;;;;5.05;3.30;;;17.60;99.90;;;;;;4106695;28;20039;-67
2023/10/08 03:33:10;;;;;;;6.45;3.33;;;17.60;99.90;;;;;;4109697;28;20039;-67
2023/10/08 03:35:12;;;;;;;6.35;3.50;;;17.50;99.90;;;;;;4104363;28;20051;-68
2023/10/08 03:37:20;;;;;;;7.05;3.55;;;17.60;99.90;;;;;;4110578;28;20058;-69
2023/10/08 03:39:23;;;;;;;4.97;2.92;;;17.60;99.90;;;;;;4091309;28;20550;-67
2023/10/08 03:41:29;;;;;;;7.28;3.60;;;17.50;99.90;;;;;;4108615;28;20043;-66
2023/10/08 03:43:47;;;;;;;7.55;3.95;;;17.50;99.90;;;;;;4110497;28;20034;-67
2023/10/08 03:45:53;;;;;;;8.35;3.70;;;17.50;99.90;;;;;;4110153;28;20035;-67
2023/10/08 03:48:06;;;;;;;7.70;3.90;;;17.50;99.90;;;;;;4101496;28;20062;-67
2023/10/08 03:50:09;;;;;;;6.13;3.40;;;17.50;99.90;;;;;;4114494;28;20519;-67
2023/10/08 03:52:10;;;;;;;11.43;3.45;;;17.40;99.90;;;;;;4101185;28;20023;-68
2023/10/08 03:54:18;;;;;;;8.00;3.15;;;17.40;99.90;;;;;;4105241;28;20118;-67
2023/10/08 03:56:19;;;;;;;6.22;3.15;;;17.40;99.90;;;;;;4106571;28;20024;-68
2023/10/08 03:58:31;;;;;;;5.97;3.15;;;17.40;99.90;;;;;;4094909;28;20023;-67
2023/10/08 04:00:31;;;;;;;7.40;3.35;;;17.40;99.90;;;;;;4097241;28;20102;-66
2023/10/08 04:02:46;;;;;;;7.15;3.97;;;17.40;99.90;;;;;;4107638;28;20476;-67
2023/10/08 04:05:21;;;;;;;6.43;3.67;;;17.40;99.90;;;;;;4104729;28;20030;-66
2023/10/08 04:07:36;;;;;;;7.97;3.03;;;17.40;99.90;;;;;;4104141;28;20089;-66
2023/10/08 04:09:39;;;;;;;6.25;3.67;;;17.40;99.90;;;;;;4109356;28;20046;-66
2023/10/08 04:11:51;;;;;;;12.48;4.03;;;17.30;99.90;;;;;;4106507;28;20035;-66
2023/10/08 04:13:52;;;;;;;7.57;3.72;;;17.30;99.90;;;;;;4109063;28;20039;-67
2023/10/08 04:15:52;;;;;;;8.88;3.55;;;17.30;99.90;;;;;;4108720;28;20038;-66
2023/10/08 04:17:53;;;;;;;7.05;3.75;;;17.30;99.90;;;;;;4113780;28;20464;-66
2023/10/08 04:19:54;;;;;;;9.27;3.95;;;17.30;99.90;;;;;;4113433;28;20042;-66
2023/10/08 04:21:56;;;;;;;7.30;3.63;;;17.30;99.90;;;;;;4111003;28;20033;-66
2023/10/08 04:23:57;;;;;;;9.95;4.10;;;17.30;99.90;;;;;;4112728;28;20070;-67
2023/10/08 04:25:58;;;;;;;8.48;3.88;;;17.20;99.90;;;;;;4112464;28;20039;-67
2023/10/08 04:28:00;;;;;;;7.47;3.50;;;17.20;99.90;;;;;;4096033;28;20106;-67
2023/10/08 04:30:01;;;;;;;9.77;4.17;;;17.20;99.90;;;;;;4111635;28;20039;-66
2023/10/08 04:32:07;;;;;;;7.95;3.58;;;17.20;99.90;;;;;;4108245;28;20070;-67
2023/10/08 04:34:17;;;;;;;9.35;4.05;;;17.20;99.90;;;;;;4123344;28;20035;-67
2023/10/08 04:36:20;;;;;;;9.77;4.10;;;17.20;99.90;;;;;;4106624;28;20149;-66
2023/10/08 04:38:23;;;;;;;8.48;3.50;;;17.10;99.90;;;;;;4112324;28;20513;-69
2023/10/08 04:40:24;;;;;;;10.57;4.00;;;17.10;99.90;;;;;;4087658;28;20481;-67
2023/10/08 04:42:26;;;;;;;11.63;4.50;;;17.10;99.90;;;;;;4107920;28;20031;-66
2023/10/08 04:44:26;;;;;;;10.90;4.68;;;17.10;99.90;;;;;;4110923;28;20077;-67
2023/10/08 04:46:46;;;;;;;7.80;3.72;;;17.10;99.90;;;;;;4111516;28;20552;-72
2023/10/08 04:48:49;;;;;;;11.48;4.15;;;17.00;99.90;;;;;;4107728;28;20539;-71
2023/10/08 04:50:58;;;;;;;6.45;3.53;;;17.00;99.90;;;;;;4110837;28;20031;-71
2023/10/08 04:52:58;;;;;;;6.70;3.50;;;17.00;99.90;;;;;;4110827;28;20384;-71
2023/10/08 04:55:07;;;;;;;11.15;4.38;;;17.00;99.90;;;;;;4112980;28;20066;-71
2023/10/08 04:57:15;;;;;;;10.35;4.35;;;17.00;99.90;;;;;;4121777;28;20031;-72
2023/10/08 04:59:21;;;;;;;10.18;4.45;;;17.00;99.90;;;;;;4117497;28;20073;-72
2023/10/08 05:01:28;;;;;;;7.22;3.60;;;17.00;99.90;;;;;;4103448;28;20027;-71
2023/10/08 05:03:43;;;;;;;9.77;4.32;;;17.10;99.90;;;;;;4102155;28;20397;-72
2023/10/08 05:06:39;;;;;;;8.30;3.65;;;17.10;99.90;;;;;;4109235;28;20030;-69
2023/10/08 05:08:21;;;;;;;6.47;3.13;;;17.10;99.90;;;;;;4106820;28;20114;-66
2023/10/08 05:12:37;;;;;;;8.25;4.07;;;17.10;99.90;;;;;;4112450;28;20038;-66
2023/10/08 05:14:55;;;;;;;9.48;4.57;;;17.10;99.90;;;;;;4122849;28;20030;-66
2023/10/08 05:19:37;;;;;;;9.80;4.13;;;17.00;99.90;;;;;;4105732;28;20467;-69
2023/10/08 05:21:51;;;;;;;8.45;3.70;;;17.00;99.90;;;;;;4110891;28;20026;-68
2023/10/08 05:24:13;;;;;;;8.70;3.70;;;17.00;99.90;;;;;;4116390;28;20027;-66
2023/10/08 05:26:21;;;;;;;6.30;3.90;;;17.00;99.90;;;;;;4113406;28;20031;-67
2023/10/08 05:28:24;;;;;;;9.52;4.00;;;17.00;99.90;;;;;;4102067;28;20035;-68
2023/10/08 05:32:38;;;;;;;8.23;4.07;;;16.90;99.90;;;;;;4109856;28;20739;-67
2023/10/08 05:34:50;;;;;;;9.77;4.00;;;16.90;99.90;;;;;;4099196;28;20031;-66
2023/10/08 05:37:31;;;;;;;9.83;3.90;;;16.90;99.90;;;;;;4105953;28;20062;-66
2023/10/08 05:41:28;;;;;;;9.57;4.78;;;16.90;99.90;;;;;;4107276;28;20034;-66
2023/10/08 05:45:38;;;;;;;12.48;4.63;;;16.80;99.90;;;;;;4092861;28;20027;-66
2023/10/08 05:47:41;;;;;;;10.98;4.50;;;16.80;99.90;;;;;;4106460;28;20078;-67
2023/10/08 05:49:54;;;;;;;9.82;4.03;;;16.90;99.90;;;;;;4107068;28;20082;-66
2023/10/08 05:53:56;;;;;;;13.57;3.85;;;16.80;99.90;;;;;;4056374;28;20027;-67
2023/10/08 05:56:16;;;;;;;8.77;4.05;;;16.90;99.90;;;;;;4056467;28;20066;-71
2023/10/08 06:00:46;;;;;;;7.45;4.03;;;16.90;99.90;;;;;;4106143;28;20062;-71
2023/10/08 06:05:09;;;;;;;8.55;3.80;;;16.90;99.90;;;;;;4109513;28;20492;-71
2023/10/08 06:07:20;;;;;;;6.13;3.42;;;16.90;99.90;;;;;;4108588;28;20123;-72
2023/10/08 06:09:21;;;;;;;5.63;3.20;;;17.00;99.90;;;;;;4112447;28;20492;-71
2023/10/08 06:11:41;;;;;;;7.95;3.55;;;16.90;99.90;;;;;;4108841;28;20039;-71
2023/10/08 06:13:55;;;;;;;6.60;3.15;;;17.00;99.90;;;;;;4109567;28;20396;-72
2023/10/08 06:18:04;;;;;;;6.32;3.72;;;17.00;99.90;;;;;;4109284;28;20030;-67
2023/10/08 06:20:10;;;;;;;6.03;3.58;;;17.00;99.90;;;;;;4080733;28;20402;-68
2023/10/08 06:22:10;;;;;;;8.80;4.20;;;17.10;99.90;;;;;;4111550;28;20030;-68
2023/10/08 06:24:16;;;;;;;7.93;3.97;;;17.00;99.90;;;;;;4108409;28;20554;-68
2023/10/08 06:26:20;;;;;;;6.82;3.67;;;17.00;99.90;;;;;;4106716;28;20097;-67
2023/10/08 06:28:21;;;;;;;5.30;3.25;;;17.10;99.90;;;;;;4123739;28;20044;-69
2023/10/08 06:30:24;;;;;;;7.75;3.90;;;17.10;99.90;;;;;;4114302;28;20043;-68
2023/10/08 06:32:25;;;;;;;9.95;3.90;;;17.10;99.90;;;;;;4104509;28;20034;-67
2023/10/08 06:34:27;;;;;;;6.20;3.70;;;17.10;99.90;;;;;;4108846;28;20409;-67
2023/10/08 06:36:29;;;;;;;8.07;3.70;;;17.10;99.90;;;;;;4094211;28;20167;-67
2023/10/08 06:38:33;;;;;;;7.32;3.97;;;17.10;99.90;;;;;;4104780;28;20094;-67
2023/10/08 06:42:39;;;;;;;10.30;4.00;;;17.10;99.90;;;;;;4112543;28;20058;-67
2023/10/08 06:44:42;;;;;;;9.10;3.95;;;17.10;99.90;;;;;;4098484;28;20031;-67
2023/10/08 06:46:43;;;;;;;8.77;3.70;;;17.10;99.90;;;;;;4105908;28;20122;-67
2023/10/08 06:48:44;;;;;;;6.00;3.78;;;17.00;99.90;;;;;;4107003;28;20400;-67
2023/10/08 06:50:45;;;;;;;6.57;3.28;;;17.10;99.90;;;;;;4105540;28;20373;-68
2023/10/08 06:52:46;;;;;;;7.03;3.60;;;17.10;99.90;;;;;;4101329;28;20528;-67
2023/10/08 06:54:47;;;;;;;8.23;3.67;;;17.10;99.90;;;;;;4114340;28;20440;-67
2023/10/08 06:56:51;;;;;;;9.18;3.95;;;17.10;99.90;;;;;;4109476;28;20035;-68
2023/10/08 06:58:53;;;;;;;6.43;3.67;;;17.10;99.90;;;;;;4106735;28;20468;-68
2023/10/08 07:00:55;;;;;;;6.55;3.88;;;17.10;99.90;;;;;;4107878;28;20035;-67
2023/10/08 07:02:55;;;;;;;7.80;3.70;;;17.10;99.90;;;;;;4110645;28;20519;-67
2023/10/08 07:04:56;;;;;;;7.53;4.10;;;17.10;99.90;;;;;;4109253;28;20027;-67
2023/10/08 07:06:56;;;;;;;8.23;3.72;;;17.20;99.90;;;;;;4108601;28;20033;-71
2023/10/08 07:08:59;;;;;;;8.18;3.78;;;17.20;99.90;;;;;;4110449;28;20057;-71
2023/10/08 07:11:11;;;;;;;;;;;17.20;99.90;;;;;;4113718;28;20113;-71
2023/10/08 07:13:17;;;;;;;9.98;4.40;;;17.20;99.90;;;;;;4115136;28;19918;-71
2023/10/08 07:15:23;;;;;;;12.38;4.13;;;17.20;99.90;;;;;;4107802;28;20101;-70
2023/10/08 07:17:27;;;;;;;9.75;4.57;;;17.20;99.90;;;;;;4093453;28;20502;-71
2023/10/08 07:19:39;;;;;;;8.10;4.15;;;17.20;99.90;;;;;;4093549;28;20111;-71
2023/10/08 07:21:44;;;;;;;7.80;3.83;;;17.20;99.90;;;;;;4099769;28;20535;-71
2023/10/08 07:23:57;;;;;;;9.48;3.97;;;17.20;99.90;;;;;;4108083;28;20027;-71
2023/10/08 07:26:10;;;;;;;8.07;3.85;;;17.20;99.90;;;;;;4109218;28;20397;-67
2023/10/08 07:28:12;;;;;;;11.90;4.72;;;17.30;99.90;;;;;;4115098;28;20034;-67
2023/10/08 07:30:13;;;;;;;8.48;4.00;;;17.30;99.90;;;;;;4106261;28;20031;-67
2023/10/08 07:32:18;;;;;;;7.78;3.80;;;17.20;99.90;;;;;;4106827;28;20027;-67
2023/10/08 07:34:25;;;;;;;11.18;4.35;;;17.30;99.90;;;;;;4093107;28;20035;-67
2023/10/08 07:36:27;;;;;;;8.32;3.80;;;17.30;99.90;;;;;;4108452;28;20473;-66
2023/10/08 07:38:28;;;;;;;8.27;3.78;;;17.30;99.90;;;;;;4110746;28;20023;-66
2023/10/08 07:40:30;;;;;;;5.25;3.22;;;17.30;99.90;;;;;;4103253;28;21257;-66
2023/10/08 07:42:31;;;;;;;6.35;3.30;;;17.30;99.90;;;;;;4106661;28;20133;-67
2023/10/08 07:44:35;;;;;;;8.18;3.83;;;17.40;99.90;;;;;;4109825;28;20039;-66
2023/10/08 07:46:36;;;;;;;10.07;4.13;;;17.40;99.90;;;;;;4090785;28;20465;-67
2023/10/08 07:48:42;;;;;;;12.23;5.32;;;17.40;99.90;;;;;;4105755;28;20043;-67
2023/10/08 07:50:45;;;;;;;11.32;4.75;;;17.40;99.90;;;;;;4110349;28;20503;-67
2023/10/08 07:52:46;;;;;;;10.98;4.65;;;17.40;99.90;;;;;;4115833;28;20505;-70
2023/10/08 07:54:47;;;;;;;9.20;4.43;;;17.40;99.90;;;;;;4111972;28;20067;-67
2023/10/08 07:56:48;;;;;;;12.73;5.47;;;17.40;99.90;;;;;;4111517;28;20416;-67
2023/10/08 07:58:48;;;;;;;8.63;4.43;;;17.40;99.90;;;;;;4112650;28;20031;-67
2023/10/08 08:00:51;;;;;;;9.25;4.63;;;17.40;99.90;;;;;;4114133;28;20046;-67
2023/10/08 08:02:54;;;;;;;10.35;4.30;;;17.50;99.90;;;;;;4123241;28;20459;-67
2023/10/08 08:04:56;;;;;;;8.88;4.32;;;17.50;99.90;;;;;;4109087;28;20054;-66
2023/10/08 08:06:57;;;;;;;9.20;4.55;;;17.50;99.90;;;;;;4111412;28;20030;-67
2023/10/08 08:08:57;;;;;;;8.65;4.45;;;17.60;99.90;;;;;;4109646;28;20420;-67
2023/10/08 08:11:03;;;;;;;10.05;5.30;;;17.60;99.90;;;;;;4091156;28;20514;-67
2023/10/08 08:13:08;;;;;;;12.70;5.22;;;17.60;99.90;;;;;;4109436;28;20556;-66
2023/10/08 08:15:15;;;;;;;11.32;5.32;;;17.60;99.90;;;;;;4107320;28;20109;-69
2023/10/08 08:17:17;;;;;;;11.75;5.88;;;17.60;99.90;;;;;;4110718;28;20031;-70
2023/10/08 08:19:24;;;;;;;12.60;5.50;;;17.60;99.90;;;;;;4103778;28;20082;-70
2023/10/08 08:21:25;;;;;;;16.38;6.22;;;17.60;99.90;;;;;;4097583;28;20034;-71
2023/10/08 08:23:26;;;;;;;13.80;6.65;;;17.70;99.90;;;;;;4094775;28;20039;-71
2023/10/08 08:25:33;;;;;;;13.30;5.97;;;17.60;99.90;;;;;;4096629;28;20039;-71
2023/10/08 08:27:34;;;;;;;13.65;5.55;;;17.70;99.90;;;;;;4105649;28;20086;-70
2023/10/08 08:29:44;;;;;;;15.95;6.15;;;17.70;99.90;;;;;;4082312;28;20044;-71
2023/10/08 08:31:46;;;;;;;10.98;5.85;;;17.70;99.90;;;;;;4105804;28;20030;-71
2023/10/08 08:33:53;;;;;;;9.48;4.85;;;17.80;99.90;;;;;;4103772;28;20374;-71
2023/10/08 08:36:01;;;;;;;10.27;5.25;;;17.80;99.90;;;;;;4113815;28;20031;-71
2023/10/08 08:38:02;;;;;;;10.43;5.07;;;17.90;99.90;;;;;;4109003;28;20034;-71
2023/10/08 08:40:19;;;;;;;14.65;6.00;;;17.90;99.90;;;;;;4110670;28;20058;-71
2023/10/08 08:42:23;;;;;;;11.48;5.72;;;17.90;99.90;;;;;;4112818;28;20063;-71
2023/10/08 08:44:26;;;;;;;11.63;5.22;;;18.00;99.90;;;;;;4114113;28;20114;-70
2023/10/08 08:46:39;;;;;;;9.80;5.15;;;18.00;99.90;;;;;;4101768;28;20423;-71
2023/10/08 08:48:42;;;;;;;11.10;5.50;;;18.10;99.90;;;;;;4112750;28;20035;-72
2023/10/08 08:50:45;;;;;;;10.43;5.45;;;18.10;99.90;;;;;;4094490;28;20027;-71
2023/10/08 08:52:47;;;;;;;11.93;5.32;;;18.10;99.90;;;;;;4111594;28;20035;-71
2023/10/08 08:54:47;;;;;;;9.85;5.05;;;18.20;99.90;;;;;;4108234;28;20039;-71
2023/10/08 08:56:49;;;;;;;10.30;5.10;;;18.20;99.90;;;;;;4105520;28;20031;-70
2023/10/08 08:58:49;;;;;;;10.10;5.28;;;18.30;99.90;;;;;;4102508;28;20040;-71
2023/10/08 09:00:52;;;;;;;11.95;5.18;;;18.30;99.90;;;;;;4109596;28;20687;-71
2023/10/08 09:02:53;;;;;;;11.07;5.13;;;18.40;99.90;;;;;;4080895;28;20154;-71
2023/10/08 09:04:54;;;;;;;10.32;5.00;;;18.40;99.90;;;;;;4112645;28;20066;-71
2023/10/08 09:06:55;;;;;;;10.00;5.75;;;18.50;99.90;;;;;;4078437;28;20036;-72
2023/10/08 09:09:11;;;;;;;12.38;6.93;;;18.50;99.90;;;;;;4100435;28;20047;-71
2023/10/08 09:11:18;;;;;;;15.95;7.10;;;18.50;99.90;;;;;;4112159;28;20031;-70
2023/10/08 09:13:22;;;;;;;13.23;6.57;;;18.50;99.90;;;;;;4121330;28;20153;-71
2023/10/08 09:15:25;;;;;;;10.90;5.75;;;18.50;99.90;;;;;;4107687;28;20055;-69
2023/10/08 09:17:26;;;;;;;11.93;5.60;;;18.40;99.90;;;;;;4116479;28;20047;-72
2023/10/08 09:19:27;;;;;;;11.82;6.07;;;18.50;99.90;;;;;;4111557;28;20763;-71
2023/10/08 09:21:27;;;;;;;10.82;5.90;;;18.50;99.90;;;;;;4111887;28;20034;-71
2023/10/08 09:23:29;;;;;;;10.68;5.70;;;18.50;99.90;;;;;;4112562;28;20097;-71
2023/10/08 09:25:32;;;;;;;8.73;5.30;;;18.50;99.90;;;;;;4109719;28;20035;-71
2023/10/08 09:27:33;;;;;;;13.00;5.95;;;18.50;99.90;;;;;;4111078;28;20062;-67
2023/10/08 09:29:41;;;;;;;9.68;5.20;;;18.50;99.90;;;;;;4111097;28;20061;-68
2023/10/08 09:31:48;;;;;;;10.43;4.85;;;18.50;99.90;;;;;;4122741;28;20035;-67
2023/10/08 09:33:55;;;;;;;10.30;4.15;;;18.50;99.90;;;;;;4111725;28;20057;-67
2023/10/08 09:36:02;;;;;;;8.43;4.28;;;18.50;99.90;;;;;;4110291;28;20038;-67
2023/10/08 09:38:04;;;;;;;7.30;4.00;;;18.50;99.90;;;;;;4101561;28;20035;-67
2023/10/08 09:40:11;;;;;;;13.35;6.47;;;18.50;99.90;;;;;;4102615;28;20034;-68
2023/10/08 09:42:13;;;;;;;12.40;7.10;;;18.40;99.90;;;;;;4104362;28;20035;-67
2023/10/08 09:44:14;;;;;;;15.95;7.78;;;18.30;99.90;;;;;;4112875;28;20035;-67
2023/10/08 09:46:20;;;;;;;20.02;9.15;;;18.30;99.90;;;;;;4105482;28;20114;-67
2023/10/08 09:48:24;;;;;;;19.90;10.77;;;18.30;99.90;;;;;;4099702;28;20413;-67
2023/10/08 09:50:32;;;;;;;18.70;10.60;;;18.20;99.90;;;;;;4106668;28;20378;-67
2023/10/08 09:52:50;;;;;;;20.35;10.75;;;18.10;99.90;;;;;;4109926;28;20130;-66
2023/10/08 09:55:03;;;;;;;19.65;10.05;;;18.10;99.90;;;;;;4108763;28;20054;-66
2023/10/08 09:57:06;;;;;;;20.27;10.45;;;18.10;99.90;;;;;;4093502;28;20047;-67
2023/10/08 09:59:09;;;;;;;20.15;10.30;;;18.00;99.90;;;;;;4109349;28;20031;-67
2023/10/08 10:01:10;;;;;;;15.05;9.70;;;18.00;99.90;;;;;;4107981;28;20039;-67
2023/10/08 10:03:12;;;;;;;17.25;9.80;;;18.00;99.90;;;;;;4109859;28;20043;-67
2023/10/08 10:05:18;;;;;;;17.95;9.20;;;18.00;99.90;;;;;;4111174;28;20049;-67
2023/10/08 10:07:20;;;;;;;20.88;9.90;;;18.00;99.90;;;;;;4100986;28;20035;-67
2023/10/08 10:09:24;;;;;;;20.25;9.13;;;17.90;99.90;;;;;;4110697;28;20070;-68
2023/10/08 10:11:31;;;;;;;14.90;8.70;;;17.90;99.90;;;;;;4105254;28;20034;-67
2023/10/08 10:13:52;;;;;;;18.00;9.43;;;17.90;99.90;;;;;;4108807;28;20374;-67
2023/10/08 10:15:53;;;;;;;18.30;9.82;;;17.80;99.90;;;;;;4125432;28;20037;-67
2023/10/08 10:17:56;;;;;;;16.23;9.45;;;17.80;99.90;;;;;;4110189;28;20459;-67
2023/10/08 10:20:00;;;;;;;17.75;8.52;;;17.70;99.90;;;;;;4109080;28;20065;-67
2023/10/08 10:22:03;;;;;;;16.13;10.23;;;17.80;99.90;;;;;;4110352;28;20039;-66
2023/10/08 10:24:05;;;;;;;19.90;13.57;;;17.80;99.90;;;;;;4110403;28;20401;-66
2023/10/08 10:26:28;;;;;;;25.95;13.52;;;17.80;99.90;;;;;;4110438;28;20099;-66
2023/10/08 10:28:29;;;;;;;23.40;13.70;;;17.80;99.90;;;;;;4109291;28;21279;-68
2023/10/08 10:30:32;;;;;;;20.85;13.15;;;17.80;99.90;;;;;;4106205;28;20702;-67
2023/10/08 10:32:34;;;;;;;19.80;12.63;;;17.70;99.90;;;;;;4111220;28;20510;-67
2023/10/08 10:34:39;;;;;;;26.33;14.15;;;17.80;99.90;;;;;;4111694;28;20031;-67
2023/10/08 10:36:41;;;;;;;21.85;12.57;;;17.80;99.90;;;;;;4110085;28;20089;-67
2023/10/08 10:38:42;;;;;;;28.85;14.35;;;17.80;99.90;;;;;;4110889;28;20125;-67
2023/10/08 10:40:43;;;;;;;24.05;13.48;;;17.80;99.90;;;;;;4108236;28;20109;-66
2023/10/08 10:42:53;;;;;;;21.75;10.25;;;17.80;99.90;;;;;;4111418;28;20110;-67
2023/10/08 10:44:56;;;;;;;21.38;10.00;;;17.70;99.90;;;;;;4111061;28;20110;-66
2023/10/08 10:49:18;;;;;;;20.40;9.63;;;17.70;99.90;;;;;;4106943;28;20074;-66
2023/10/08 10:51:19;;;;;;;17.02;9.48;;;17.70;99.90;;;;;;4108708;28;20041;-68
2023/10/08 10:53:20;;;;;;;19.90;8.88;;;17.60;99.90;;;;;;4111998;28;20448;-67
2023/10/08 10:55:23;;;;;;;15.35;8.02;;;17.60;99.90;;;;;;4116544;28;20112;-66
2023/10/08 10:57:34;;;;;;;;;;;17.60;99.90;;;;;;4111434;28;20038;-67
2023/10/08 10:59:38;;;;;;;15.85;7.82;;;17.60;99.90;;;;;;4104069;28;20306;-66
2023/10/08 11:01:46;;;;;;;18.08;8.63;;;17.60;99.90;;;;;;4110402;28;20035;-66
2023/10/08 11:03:51;;;;;;;28.50;11.50;;;17.70;99.90;;;;;;4109343;28;20027;-66
2023/10/08 11:05:59;;;;;;;26.40;12.88;;;17.70;99.90;;;;;;4104662;28;20019;-66
2023/10/08 11:08:05;;;;;;;26.25;12.95;;;17.60;99.90;;;;;;4109527;28;20370;-66
2023/10/08 11:10:10;;;;;;;20.17;12.10;;;17.60;99.90;;;;;;4091424;28;20035;-66
2023/10/08 11:12:13;;;;;;;19.95;11.38;;;17.60;99.90;;;;;;4110078;28;20050;-66